Breclav, Czech Republic
Current Conditions -  °F | °C
As of 2:30 PM on Saturday 25 Oct 2014 (Local Time) from LKTB Reporting Station
Overcast Overcast  
Wind Chill: 43°   Ceiling: 700
Heat Index: 43°   Visibility: 4mi
Dew Point: 39°   Wind: 3mph
Humidity: 87%   Direction: 110°ESE
Pressure: 30.24"   Gusts: NA
Location:  48.76°N, 16.89°E
Report Text: LKTB 251230Z 11003KT 070V140 6000 OVC007 06/04 Q1024 NOSIG
Loading
Personal Weather Stations






























Interactive Weather Map
Tropical Storm Tracking
New forecast layout! Learn more

10-Day Weather Forecast

Advertisements
Track Severe Weather on mobile